createdAt,value
2018-04-18T00:00:40.197Z,49.30
2018-04-18T00:03:14.565Z,49.30
2018-04-18T00:05:49.153Z,49.30
2018-04-18T00:08:24.348Z,49.10
2018-04-18T00:10:58.904Z,49.40
2018-04-18T00:13:34.140Z,49.90
2018-04-18T00:16:08.660Z,49.40
2018-04-18T00:18:43.040Z,49.50
2018-04-18T00:21:17.491Z,49.50
2018-04-18T00:23:51.840Z,49.30
2018-04-18T00:26:26.421Z,49.50
2018-04-18T00:29:01.467Z,49.50
2018-04-18T00:31:36.828Z,49.50
2018-04-18T00:34:11.465Z,49.50
2018-04-18T00:36:45.874Z,49.50
2018-04-18T00:39:20.173Z,49.50
2018-04-18T00:41:54.724Z,49.50
2018-04-18T00:44:30.655Z,49.50
2018-04-18T00:47:05.293Z,49.40
2018-04-18T00:49:39.732Z,49.50
2018-04-18T00:52:14.244Z,49.50
2018-04-18T00:54:48.660Z,49.50
2018-04-18T00:57:23.274Z,49.60
2018-04-18T00:59:57.613Z,49.50
2018-04-18T01:02:32.137Z,49.50
2018-04-18T01:05:06.867Z,49.60
2018-04-18T01:07:41.225Z,49.60
2018-04-18T01:10:15.616Z,49.70
2018-04-18T01:12:50.016Z,49.90
2018-04-18T01:15:24.525Z,49.80
2018-04-18T01:17:58.868Z,49.80
2018-04-18T01:20:33.272Z,49.80
2018-04-18T01:23:07.816Z,49.80
2018-04-18T01:25:42.128Z,49.90
2018-04-18T01:28:16.644Z,49.80
2018-04-18T01:30:51.060Z,49.80
2018-04-18T01:33:25.396Z,49.90
2018-04-18T01:35:59.715Z,49.90
2018-04-18T01:38:34.991Z,49.80
2018-04-18T01:41:09.461Z,49.90
2018-04-18T01:43:44.093Z,49.80
2018-04-18T01:46:18.610Z,49.80
2018-04-18T01:49:05.042Z,49.80
2018-04-18T01:51:39.440Z,49.80
2018-04-18T01:54:14.649Z,50.00
2018-04-18T01:56:49.192Z,49.90
2018-04-18T01:59:23.592Z,50.00
2018-04-18T02:01:58.376Z,50.00
2018-04-18T02:04:32.739Z,50.00
2018-04-18T02:07:06.983Z,50.00
2018-04-18T02:09:41.393Z,50.00
2018-04-18T02:12:15.693Z,50.00
2018-04-18T02:14:50.025Z,50.00
2018-04-18T02:17:24.448Z,50.10
2018-04-18T02:19:58.783Z,50.00
2018-04-18T02:22:33.301Z,50.10
2018-04-18T02:25:07.574Z,50.10
2018-04-18T02:27:42.216Z,50.10
2018-04-18T02:30:16.508Z,50.20
2018-04-18T02:32:50.980Z,50.10
2018-04-18T02:35:26.003Z,50.10
2018-04-18T02:38:00.444Z,50.10
2018-04-18T02:40:34.820Z,50.10
2018-04-18T02:43:09.294Z,50.20
2018-04-18T02:45:43.608Z,50.20
2018-04-18T02:48:18.237Z,50.20
2018-04-18T02:50:52.727Z,50.20
2018-04-18T02:53:27.988Z,50.30
2018-04-18T02:56:02.372Z,50.20
2018-04-18T02:58:36.700Z,50.30
2018-04-18T03:01:11.356Z,50.20
2018-04-18T03:03:45.875Z,50.30
2018-04-18T03:06:20.485Z,50.20
2018-04-18T03:08:54.755Z,50.20
2018-04-18T03:11:29.314Z,50.20
2018-04-18T03:14:03.871Z,50.20
2018-04-18T03:16:38.152Z,50.20
2018-04-18T03:19:12.409Z,50.30
2018-04-18T03:21:47.021Z,50.30
2018-04-18T03:24:21.624Z,50.30
2018-04-18T03:26:56.172Z,50.30
2018-04-18T03:29:31.398Z,50.40
2018-04-18T03:32:05.840Z,50.30
2018-04-18T03:34:40.272Z,50.30
2018-04-18T03:37:14.861Z,50.30
2018-04-18T03:39:49.168Z,50.30
2018-04-18T03:42:23.416Z,50.30
2018-04-18T03:44:57.740Z,50.40
2018-04-18T03:47:32.001Z,50.40
2018-04-18T03:50:09.950Z,50.40
2018-04-18T03:52:45.203Z,50.40
2018-04-18T03:55:19.620Z,50.40
2018-04-18T03:57:54.044Z,51.00
2018-04-18T04:00:28.800Z,50.50
2018-04-18T04:03:03.069Z,50.50
2018-04-18T04:05:37.582Z,50.50
2018-04-18T04:08:11.965Z,50.70
2018-04-18T04:10:46.553Z,50.70
2018-04-18T04:13:22.085Z,50.60
2018-04-18T04:15:57.208Z,50.50
2018-04-18T04:18:43.559Z,50.50
2018-04-18T04:21:29.836Z,50.50
2018-04-18T04:24:16.240Z,50.50
2018-04-18T04:26:50.536Z,50.50
2018-04-18T04:29:25.572Z,50.60
2018-04-18T04:32:00.028Z,50.50
2018-04-18T04:34:34.331Z,50.80
2018-04-18T04:37:08.580Z,50.50
2018-04-18T04:39:42.950Z,50.60
2018-04-18T04:42:18.196Z,50.70
2018-04-18T04:44:53.324Z,50.70
2018-04-18T04:47:27.541Z,50.70
2018-04-18T04:50:01.942Z,50.70
2018-04-18T04:52:36.379Z,50.80
2018-04-18T04:55:10.620Z,50.80
2018-04-18T04:57:44.917Z,50.90
2018-04-18T05:00:20.040Z,50.90
2018-04-18T05:02:54.577Z,50.80
2018-04-18T05:05:29.029Z,50.80
2018-04-18T05:08:03.452Z,50.90
2018-04-18T05:10:37.716Z,50.90
2018-04-18T05:13:12.283Z,50.90
2018-04-18T05:15:46.772Z,50.90
2018-04-18T05:18:21.116Z,50.90
2018-04-18T05:20:55.648Z,50.90
2018-04-18T05:23:30.046Z,50.90
2018-04-18T05:26:05.188Z,50.70
2018-04-18T05:28:39.524Z,50.50
2018-04-18T05:31:14.552Z,50.50
2018-04-18T05:33:49.224Z,50.50
2018-04-18T05:36:23.724Z,50.20
2018-04-18T05:38:58.220Z,51.60
2018-04-18T05:41:33.224Z,54.20
2018-04-18T05:44:08.382Z,53.30
2018-04-18T05:46:43.024Z,53.20
2018-04-18T05:49:17.296Z,54.60
2018-04-18T05:51:51.747Z,53.30
2018-04-18T05:54:26.168Z,55.40
2018-04-18T05:57:00.517Z,54.20
2018-04-18T05:59:34.824Z,52.50
2018-04-18T06:02:10.153Z,57.60
2018-04-18T06:04:45.325Z,57.50
2018-04-18T06:07:20.117Z,64.70
2018-04-18T06:09:54.732Z,66.70
2018-04-18T06:12:29.752Z,65.10
2018-04-18T06:15:04.184Z,65.10
2018-04-18T06:17:38.741Z,64.70
2018-04-18T06:20:13.132Z,64.90
2018-04-18T06:22:47.681Z,65.90
2018-04-18T06:25:22.068Z,67.80
2018-04-18T06:27:56.521Z,67.10
2018-04-18T06:30:31.871Z,67.20
2018-04-18T06:33:06.240Z,67.20
2018-04-18T06:35:40.813Z,65.60
2018-04-18T06:38:15.247Z,64.90
2018-04-18T06:40:50.555Z,63.70
2018-04-18T06:43:25.101Z,59.70
2018-04-18T06:45:59.467Z,59.60
2018-04-18T06:48:34.036Z,59.00
2018-04-18T06:51:08.342Z,58.30
2018-04-18T06:53:42.764Z,59.30
2018-04-18T06:56:17.218Z,57.90
2018-04-18T06:58:51.517Z,57.50
2018-04-18T07:01:26.049Z,57.00
2018-04-18T07:04:00.703Z,56.00
2018-04-18T07:06:35.125Z,56.20
2018-04-18T07:09:09.720Z,55.20
2018-04-18T07:11:44.340Z,55.10
2018-04-18T07:14:18.864Z,53.70
2018-04-18T07:16:53.192Z,54.00
2018-04-18T07:19:27.608Z,54.00
2018-04-18T07:22:02.117Z,53.70
2018-04-18T07:24:36.548Z,53.30
2018-04-18T07:27:10.814Z,53.00
2018-04-18T07:29:45.276Z,51.30
2018-04-18T07:32:19.596Z,51.70
2018-04-18T07:34:53.968Z,49.10
2018-04-18T07:37:29.041Z,47.90
2018-04-18T07:40:03.573Z,47.80
2018-04-18T07:42:38.036Z,47.10
2018-04-18T07:45:12.520Z,46.80
2018-04-18T07:47:47.539Z,47.10
2018-04-18T07:50:22.274Z,47.10
2018-04-18T07:52:56.720Z,47.50
2018-04-18T07:55:31.217Z,46.80
2018-04-18T07:58:05.663Z,45.60
2018-04-18T08:00:40.903Z,44.50
2018-04-18T08:03:15.212Z,44.40
2018-04-18T08:05:49.632Z,43.50
2018-04-18T08:08:24.252Z,45.40
2018-04-18T08:10:58.578Z,46.70
2018-04-18T08:13:33.124Z,44.20
2018-04-18T08:16:07.621Z,44.20
2018-04-18T08:25:14.036Z,43.40
2018-04-18T08:27:56.538Z,43.30
2018-04-18T08:30:31.032Z,43.70
2018-04-18T08:33:05.290Z,44.40
2018-04-18T08:35:39.808Z,44.30
2018-04-18T08:38:14.333Z,44.80
2018-04-18T08:40:48.944Z,43.70
2018-04-18T08:43:23.475Z,44.00
2018-04-18T08:45:57.900Z,44.20
2018-04-18T08:48:33.145Z,41.40
2018-04-18T08:51:07.561Z,41.30
2018-04-18T08:53:41.948Z,41.60
2018-04-18T08:56:16.691Z,41.80
2018-04-18T08:58:51.085Z,42.60
2018-04-18T09:01:25.493Z,39.50
2018-04-18T09:04:00.072Z,38.40
2018-04-18T09:06:34.509Z,41.30
2018-04-18T09:09:09.037Z,39.70
2018-04-18T09:11:44.849Z,39.70
2018-04-18T09:14:19.264Z,39.60
2018-04-18T09:16:53.664Z,40.10
2018-04-18T09:19:28.238Z,39.90
2018-04-18T09:22:02.625Z,39.90
2018-04-18T09:24:37.016Z,41.10
2018-04-18T09:27:11.498Z,41.90
2018-04-18T09:29:45.918Z,40.30
2018-04-18T09:32:20.336Z,39.40
2018-04-18T09:34:54.760Z,39.20
2018-04-18T09:37:29.971Z,38.90
2018-04-18T09:40:05.151Z,39.60
2018-04-18T09:42:40.345Z,39.90
2018-04-18T09:45:14.816Z,39.90
2018-04-18T09:47:49.060Z,38.70
2018-04-18T09:50:23.308Z,38.80
2018-04-18T09:52:57.765Z,39.20
2018-04-18T09:55:32.281Z,40.40
2018-04-18T09:58:06.696Z,39.80
2018-04-18T10:00:46.855Z,40.10
2018-04-18T10:03:21.149Z,39.50
2018-04-18T10:05:55.500Z,38.10
2018-04-18T10:08:29.828Z,37.40
2018-04-18T10:11:04.116Z,38.50
2018-04-18T10:13:38.429Z,37.80
2018-04-18T10:16:12.855Z,38.40
2018-04-18T10:18:47.920Z,38.10
2018-04-18T10:21:23.744Z,39.50
2018-04-18T10:23:58.313Z,39.40
2018-04-18T10:26:32.684Z,35.80
2018-04-18T10:29:07.120Z,38.00
2018-04-18T10:31:41.536Z,36.90
2018-04-18T10:34:16.056Z,35.60
2018-04-18T10:36:50.432Z,34.60
2018-04-18T10:39:24.872Z,36.40
2018-04-18T10:41:59.400Z,37.80
2018-04-18T10:44:33.864Z,37.10
2018-04-18T10:47:08.176Z,38.60
2018-04-18T10:49:42.588Z,37.50
2018-04-18T10:52:16.858Z,38.50
2018-04-18T10:54:51.205Z,37.20
2018-04-18T10:57:26.231Z,37.20
2018-04-18T11:00:00.661Z,37.10
2018-04-18T11:02:35.304Z,37.70
2018-04-18T11:05:10.649Z,36.20
2018-04-18T11:07:45.020Z,36.20
2018-04-18T11:10:19.376Z,39.50
2018-04-18T11:12:53.757Z,36.70
2018-04-18T11:15:28.415Z,37.80
2018-04-18T11:18:02.848Z,38.30
2018-04-18T11:20:37.241Z,38.30
2018-04-18T11:23:11.700Z,36.90
2018-04-18T11:25:46.224Z,39.70
2018-04-18T11:28:20.592Z,37.50
2018-04-18T11:30:55.042Z,37.40
2018-04-18T11:33:29.388Z,38.00
2018-04-18T11:36:03.746Z,37.90
2018-04-18T11:38:38.207Z,37.70
2018-04-18T11:41:12.544Z,37.40
2018-04-18T11:43:47.077Z,38.30
2018-04-18T11:46:21.796Z,38.40
2018-04-18T11:48:56.160Z,38.50
2018-04-18T11:51:30.831Z,38.00
2018-04-18T11:54:05.140Z,38.70
2018-04-18T11:56:39.476Z,38.70
2018-04-18T11:59:13.892Z,39.40
2018-04-18T12:01:48.229Z,37.60
2018-04-18T12:04:22.667Z,38.30
2018-04-18T12:06:56.990Z,38.70
2018-04-18T12:09:31.464Z,38.80
2018-04-18T12:12:05.899Z,39.00
2018-04-18T12:14:40.416Z,39.30
2018-04-18T12:17:15.444Z,39.50
2018-04-18T12:19:49.893Z,39.40
2018-04-18T12:22:25.831Z,39.30
2018-04-18T12:25:00.224Z,39.20
2018-04-18T12:27:34.540Z,39.90
2018-04-18T12:30:08.897Z,39.10
2018-04-18T12:32:43.289Z,38.80
2018-04-18T12:35:18.648Z,40.20
2018-04-18T12:37:53.064Z,40.30
2018-04-18T12:40:27.440Z,40.50
2018-04-18T12:43:06.564Z,40.20
2018-04-18T12:45:41.063Z,40.10
2018-04-18T12:48:15.468Z,40.90
2018-04-18T12:50:50.104Z,41.30
2018-04-18T12:53:24.509Z,41.80
2018-04-18T12:55:58.931Z,41.10
2018-04-18T12:58:33.556Z,41.00
2018-04-18T13:01:07.861Z,41.50
2018-04-18T13:03:42.400Z,40.50
2018-04-18T13:06:16.836Z,40.00
2018-04-18T13:08:51.465Z,39.90
2018-04-18T13:11:25.881Z,40.80
2018-04-18T13:14:00.984Z,40.40
2018-04-18T13:16:35.329Z,40.40
2018-04-18T13:19:09.737Z,40.10
2018-04-18T13:21:44.165Z,40.30
2018-04-18T13:24:18.801Z,39.70
2018-04-18T13:26:53.303Z,40.60
2018-04-18T13:29:28.454Z,41.10
2018-04-18T13:32:02.868Z,41.10
2018-04-18T13:34:37.269Z,40.50
2018-04-18T13:37:11.809Z,40.50
2018-04-18T13:39:46.105Z,40.10
2018-04-18T13:42:20.506Z,40.20
2018-04-18T13:44:54.944Z,40.50
2018-04-18T13:47:29.271Z,40.90
2018-04-18T13:50:03.561Z,40.50
2018-04-18T13:52:37.924Z,40.40
2018-04-18T13:55:12.393Z,40.20
2018-04-18T13:57:46.745Z,40.00
2018-04-18T14:00:21.101Z,38.90
2018-04-18T14:02:55.488Z,40.70
2018-04-18T14:05:30.028Z,39.20
2018-04-18T14:08:04.285Z,39.40
2018-04-18T14:10:38.972Z,39.50
2018-04-18T14:13:13.241Z,40.00
2018-04-18T14:15:47.712Z,40.20
2018-04-18T14:18:22.836Z,39.90
2018-04-18T14:20:58.064Z,40.40
2018-04-18T14:23:32.480Z,40.30
2018-04-18T14:26:07.837Z,39.00
2018-04-18T14:28:42.257Z,39.00
2018-04-18T14:31:16.624Z,39.00
2018-04-18T14:33:51.016Z,39.80
2018-04-18T14:36:25.332Z,38.30
2018-04-18T14:39:00.063Z,38.80
2018-04-18T14:41:34.484Z,39.90
2018-04-18T14:44:09.704Z,38.90
2018-04-18T14:46:44.180Z,38.80
2018-04-18T14:49:18.651Z,38.70
2018-04-18T14:51:52.984Z,38.90
2018-04-18T14:54:27.813Z,38.70
2018-04-18T14:57:02.242Z,38.00
2018-04-18T14:59:36.796Z,38.20
2018-04-18T15:02:11.292Z,37.50
2018-04-18T15:04:47.232Z,37.40
2018-04-18T15:07:21.548Z,37.40
2018-04-18T15:09:56.016Z,37.20
2018-04-18T15:12:30.685Z,37.70
2018-04-18T15:15:05.208Z,37.70
2018-04-18T15:17:39.513Z,36.80
2018-04-18T15:20:13.836Z,36.70
2018-04-18T15:22:48.195Z,36.00
2018-04-18T15:25:22.703Z,35.60
2018-04-18T15:27:57.164Z,35.80
2018-04-18T15:30:31.529Z,35.60
2018-04-18T15:33:05.873Z,35.50
2018-04-18T15:35:41.691Z,34.30
2018-04-18T15:38:16.129Z,34.30
2018-04-18T15:40:50.560Z,34.30
2018-04-18T15:43:25.277Z,34.60
2018-04-18T15:45:59.500Z,35.10
2018-04-18T15:48:33.817Z,34.10
2018-04-18T15:51:08.453Z,34.20
2018-04-18T15:53:42.856Z,34.40
2018-04-18T15:56:17.291Z,33.10
2018-04-18T15:58:51.839Z,34.30
2018-04-18T16:01:26.223Z,33.50
2018-04-18T16:04:00.656Z,34.20
2018-04-18T16:06:35.081Z,33.70
2018-04-18T16:09:09.482Z,33.20
2018-04-18T16:11:43.900Z,34.30
2018-04-18T16:14:18.323Z,33.20
2018-04-18T16:16:52.660Z,33.20
2018-04-18T16:19:27.043Z,33.20
2018-04-18T16:22:01.504Z,33.40
2018-04-18T16:24:35.904Z,34.00
2018-04-18T16:27:10.309Z,34.50
2018-04-18T16:29:45.400Z,33.70
2018-04-18T16:32:20.716Z,33.10
2018-04-18T16:34:55.856Z,31.90
2018-04-18T16:37:30.236Z,31.90
2018-04-18T16:40:04.849Z,31.70
2018-04-18T16:42:39.216Z,31.80
2018-04-18T16:45:13.624Z,31.50
2018-04-18T16:47:48.884Z,32.20
2018-04-18T16:50:23.508Z,32.20
2018-04-18T16:52:57.965Z,32.50
2018-04-18T16:55:33.292Z,33.40
2018-04-18T16:58:07.805Z,32.20
2018-04-18T17:00:42.157Z,32.50
2018-04-18T17:03:17.424Z,33.50
2018-04-18T17:05:52.684Z,33.30
2018-04-18T17:08:27.831Z,34.00
2018-04-18T17:11:02.131Z,33.90
2018-04-18T17:13:36.683Z,33.90
2018-04-18T17:16:11.223Z,34.00
2018-04-18T17:18:46.216Z,34.50
2018-04-18T17:21:20.610Z,34.50
2018-04-18T17:23:55.168Z,33.90
2018-04-18T17:26:29.794Z,33.50
2018-04-18T17:29:04.148Z,34.20
2018-04-18T17:31:39.448Z,33.40
2018-04-18T17:34:13.940Z,33.40
2018-04-18T17:36:48.277Z,34.00
2018-04-18T17:39:22.588Z,34.00
2018-04-18T17:41:57.184Z,34.20
2018-04-18T17:44:32.992Z,34.50
2018-04-18T17:47:07.350Z,35.00
2018-04-18T17:49:41.640Z,35.30
2018-04-18T17:52:16.267Z,35.40
2018-04-18T17:54:50.688Z,35.80
2018-04-18T17:57:25.205Z,37.10
2018-04-18T17:59:59.580Z,36.20
2018-04-18T18:02:33.966Z,36.20
2018-04-18T18:05:09.089Z,37.00
2018-04-18T18:07:43.415Z,36.90
2018-04-18T18:10:17.749Z,36.60
2018-04-18T18:12:52.033Z,37.20
2018-04-18T18:15:26.552Z,37.90
2018-04-18T18:18:01.007Z,39.00
2018-04-18T18:20:36.236Z,40.50
2018-04-18T18:23:10.592Z,40.50
2018-04-18T18:25:45.672Z,41.80
2018-04-18T18:28:20.004Z,41.70
2018-04-18T18:30:54.520Z,42.20
2018-04-18T18:33:29.008Z,42.40
2018-04-18T18:36:03.440Z,42.20
2018-04-18T18:38:37.902Z,42.20
2018-04-18T18:41:12.421Z,42.80
2018-04-18T18:43:47.625Z,42.30
2018-04-18T18:46:22.052Z,42.30
2018-04-18T18:48:57.494Z,42.30
2018-04-18T18:51:31.748Z,42.30
2018-04-18T18:54:06.030Z,41.70
2018-04-18T18:56:40.587Z,41.50
2018-04-18T18:59:15.020Z,41.40
2018-04-18T19:01:49.672Z,41.20
2018-04-18T19:04:24.845Z,42.00
2018-04-18T19:07:00.106Z,41.80
2018-04-18T19:09:34.508Z,41.70
2018-04-18T19:12:09.037Z,42.70
2018-04-18T19:14:43.447Z,42.80
2018-04-18T19:17:17.785Z,42.60
2018-04-18T19:19:52.065Z,42.70
2018-04-18T19:22:26.516Z,43.10
2018-04-18T19:25:01.024Z,43.40
2018-04-18T19:27:35.320Z,43.40
2018-04-18T19:30:09.629Z,43.50
2018-04-18T19:32:43.992Z,43.80
2018-04-18T19:35:18.321Z,43.90
2018-04-18T19:37:52.596Z,43.70
2018-04-18T19:40:27.056Z,44.00
2018-04-18T19:43:01.375Z,44.10
2018-04-18T19:45:35.682Z,44.00
2018-04-18T19:48:10.049Z,44.10
2018-04-18T19:50:44.344Z,44.10
2018-04-18T19:53:18.644Z,44.40
2018-04-18T19:55:53.668Z,44.90
2018-04-18T19:58:28.025Z,44.90
2018-04-18T20:01:02.463Z,44.90
2018-04-18T20:03:36.734Z,45.00
2018-04-18T20:06:11.887Z,44.80
2018-04-18T20:08:47.011Z,44.80
2018-04-18T20:11:21.461Z,45.10
2018-04-18T20:13:55.814Z,46.20
2018-04-18T20:16:30.205Z,45.80
2018-04-18T20:19:04.717Z,46.20
2018-04-18T20:21:39.077Z,46.90
2018-04-18T20:24:13.392Z,47.00
2018-04-18T20:26:47.750Z,47.10
2018-04-18T20:29:22.116Z,47.50
2018-04-18T20:31:56.629Z,47.40
2018-04-18T20:34:31.139Z,48.00
2018-04-18T20:37:05.446Z,48.30
2018-04-18T20:39:39.779Z,48.40
2018-04-18T20:42:14.220Z,48.60
2018-04-18T20:44:49.418Z,48.90
2018-04-18T20:47:23.837Z,48.90
2018-04-18T20:49:58.281Z,49.00
2018-04-18T20:52:32.766Z,49.40
2018-04-18T20:55:07.226Z,49.30
2018-04-18T20:57:41.590Z,49.70
2018-04-18T21:00:15.927Z,49.90
2018-04-18T21:02:50.443Z,50.00
2018-04-18T21:05:24.917Z,50.40
2018-04-18T21:07:59.240Z,50.50
2018-04-18T21:10:33.618Z,50.40
2018-04-18T21:13:07.969Z,50.20
2018-04-18T21:15:42.449Z,50.50
2018-04-18T21:18:16.842Z,50.50
2018-04-18T21:20:51.103Z,50.40
2018-04-18T21:23:26.177Z,51.10
2018-04-18T21:26:00.618Z,51.10
2018-04-18T21:28:35.033Z,50.10
2018-04-18T21:31:09.351Z,50.30
2018-04-18T21:33:43.959Z,49.80
2018-04-18T21:36:18.289Z,50.30
2018-04-18T21:38:52.550Z,49.60
2018-04-18T21:41:26.832Z,49.10
2018-04-18T21:44:01.284Z,48.80
2018-04-18T21:46:36.529Z,48.80
2018-04-18T21:49:11.138Z,48.60
2018-04-18T21:51:45.604Z,48.90
2018-04-18T21:54:20.227Z,48.30
2018-04-18T21:56:54.761Z,48.40
2018-04-18T21:59:29.045Z,48.60
2018-04-18T22:02:04.192Z,48.80
2018-04-18T22:04:38.734Z,48.80
2018-04-18T22:07:13.271Z,48.50
2018-04-18T22:09:47.620Z,48.40
2018-04-18T22:12:21.932Z,48.50
2018-04-18T22:14:56.222Z,48.30
2018-04-18T22:17:30.517Z,48.30
2018-04-18T22:20:04.947Z,48.40
2018-04-18T22:22:39.268Z,48.40
2018-04-18T22:25:13.808Z,48.40
2018-04-18T22:27:48.222Z,48.50
2018-04-18T22:30:23.441Z,48.50
2018-04-18T22:32:59.416Z,48.50
2018-04-18T22:35:34.018Z,48.40
2018-04-18T22:38:08.281Z,48.40
2018-04-18T22:40:43.451Z,48.40
2018-04-18T22:43:17.837Z,48.30
2018-04-18T22:45:52.236Z,48.20
2018-04-18T22:48:26.526Z,48.20
2018-04-18T22:51:00.968Z,48.20
2018-04-18T22:53:35.253Z,48.20
2018-04-18T22:56:09.580Z,48.20
2018-04-18T22:58:44.009Z,48.20
2018-04-18T23:01:18.273Z,48.20
2018-04-18T23:03:52.682Z,48.30
2018-04-18T23:06:27.096Z,48.10
2018-04-18T23:09:01.506Z,49.00
2018-04-18T23:11:35.964Z,49.40
2018-04-18T23:14:10.457Z,49.20
2018-04-18T23:16:44.922Z,49.30
2018-04-18T23:19:19.385Z,49.00
2018-04-18T23:21:53.637Z,48.90
2018-04-18T23:24:28.762Z,48.80
2018-04-18T23:27:04.801Z,48.80
2018-04-18T23:29:39.348Z,48.70
2018-04-18T23:32:13.829Z,48.90
2018-04-18T23:34:48.105Z,49.00
2018-04-18T23:37:23.162Z,49.00
2018-04-18T23:39:57.867Z,48.90
2018-04-18T23:42:32.433Z,48.90
2018-04-18T23:45:06.926Z,49.20
2018-04-18T23:47:41.369Z,48.80
2018-04-18T23:50:15.781Z,48.80
2018-04-18T23:52:50.112Z,48.70
2018-04-18T23:55:24.592Z,48.80
2018-04-18T23:57:59.055Z,48.80
